ROMMA est une association bénévole à but non lucratif. Votre soutien est indispensable : ADHERER à ROMMA ou FAIRE un DON

Crest - (26, Drôme)

Vallée de la Drôme (315 m)   Longitude: 5°2' E   Latitude: 44°44' N Station partenaire n°62
 

Détail journalier du     <<     >>

Température Precipitation Humidité Pression Vent Dir Rafale Dir. rafale Ensol.
Heure (°C) (mm) (%) (hPa) (km/h) (km/h) (min)
01:00 22.2066101810SSO26SSO0
02:00 22.306610189SSO21SSO0
03:00 20.507010186SSO19SSO0
04:00 18.607710185SSO19SSO0
05:00 18.707810181SSE8SE0
06:00 17.3083101803SE0
07:00 16.608510191SE6SE0
08:00 18.808010197SSO19SSO0
09:00 20.307710198SSO21SO36
10:00 21.907210199SSO24SSO58
11:00 23.9065101915SSO31SSO56
12:00 25.9058101916SSO37NNO60
13:00 28.2050101817SSO35SSO60
14:00 29.1046101818SSO34SSO39
15:00 29.4044101717NE34SSO60
16:00 30.0041101619NE39NNO60
17:00 30.2037101619N40N60
18:00 30.2035101616NE35N60
19:00 29.1039101613SSO27SSO36
20:00 28.1041101610SSO26NE0
21:00 26.004810167SSO18NE0
22:00 23.705710171NE8SSO0
23:00 22.505910171---6SE0
minuit 22.406010171SE6SSE0

Graphique du 30-08-2019

 

Serveur OMMA